createdAt,value
2023-05-04T00:01:53.904Z,83.95
2023-05-04T00:04:26.347Z,96.53
2023-05-04T00:06:56.752Z,92.78
2023-05-04T00:11:55.602Z,86.40
2023-05-04T00:14:25.445Z,95.95
2023-05-04T00:16:55.093Z,91.55
2023-05-04T00:19:24.766Z,90.45
2023-05-04T00:21:54.454Z,99.57
2023-05-04T00:24:24.150Z,91.03
2023-05-04T00:26:53.885Z,83.68
2023-05-04T00:29:24.080Z,101.90
2023-05-04T00:31:53.890Z,89.13
2023-05-04T00:34:24.864Z,94.50
2023-05-04T00:36:54.675Z,93.18
2023-05-04T00:39:24.816Z,93.57
2023-05-04T00:41:54.589Z,95.85
2023-05-04T00:44:25.470Z,90.05
2023-05-04T00:46:55.413Z,89.95
2023-05-04T00:49:25.708Z,90.90
2023-05-04T00:51:56.232Z,91.82
2023-05-04T00:54:26.225Z,101.88
2023-05-04T00:56:56.216Z,99.35
2023-05-04T00:59:25.908Z,91.45
2023-05-04T01:01:56.000Z,96.70
2023-05-04T01:04:26.395Z,100.30
2023-05-04T01:09:43.521Z,122.03
2023-05-04T01:12:32.317Z,78.50
2023-05-04T01:15:03.412Z,89.93
2023-05-04T01:17:33.218Z,86.25
2023-05-04T01:20:03.109Z,82.72
2023-05-04T01:22:32.905Z,70.68
2023-05-04T01:25:02.891Z,69.18
2023-05-04T01:27:43.414Z,74.93
2023-05-04T01:30:19.855Z,77.60
2023-05-04T01:32:50.158Z,81.20
2023-05-04T01:35:20.011Z,78.25
2023-05-04T01:37:49.782Z,85.53
2023-05-04T01:40:19.473Z,81.43
2023-05-04T01:42:49.189Z,90.75
2023-05-04T01:45:19.024Z,94.13
2023-05-04T01:47:48.805Z,92.88
2023-05-04T01:50:18.607Z,93.15
2023-05-04T01:52:48.334Z,93.13
2023-05-04T01:55:18.037Z,91.53
2023-05-04T01:57:47.831Z,84.53
2023-05-04T02:00:18.320Z,88.68
2023-05-04T02:02:53.868Z,84.93
2023-05-04T02:05:23.719Z,82.57
2023-05-04T02:07:53.711Z,82.00
2023-05-04T02:10:23.463Z,107.20
2023-05-04T02:12:53.784Z,92.82
2023-05-04T02:15:23.691Z,92.70
2023-05-04T02:17:53.482Z,91.03
2023-05-04T02:20:24.158Z,90.28
2023-05-04T02:22:53.867Z,98.90
2023-05-04T02:25:23.573Z,95.43
2023-05-04T02:27:53.698Z,97.72
2023-05-04T02:30:23.393Z,90.63
2023-05-04T02:32:53.101Z,97.53
2023-05-04T02:35:22.882Z,97.65
2023-05-04T02:37:52.706Z,84.88
2023-05-04T02:40:23.210Z,93.95
2023-05-04T02:42:52.906Z,85.78
2023-05-04T02:45:24.461Z,89.43
2023-05-04T02:47:56.521Z,94.10
2023-05-04T02:50:26.265Z,95.00
2023-05-04T02:52:56.106Z,81.25
2023-05-04T02:55:25.797Z,102.70
2023-05-04T02:57:55.537Z,98.40
2023-05-04T03:00:25.404Z,93.13
2023-05-04T03:02:55.192Z,92.82
2023-05-04T03:05:25.135Z,93.35
2023-05-04T03:07:54.851Z,96.75
2023-05-04T03:10:25.725Z,106.13
2023-05-04T03:12:55.513Z,98.00
2023-05-04T03:15:25.529Z,94.90
2023-05-04T03:17:55.326Z,93.63
2023-05-04T03:20:24.998Z,99.63
2023-05-04T03:22:54.773Z,97.15
2023-05-04T03:25:24.485Z,100.72
2023-05-04T03:27:54.288Z,94.18
2023-05-04T03:30:24.087Z,75.85
2023-05-04T03:32:53.856Z,92.45
2023-05-04T03:35:24.873Z,87.20
2023-05-04T03:37:58.652Z,84.38
2023-05-04T03:40:28.343Z,78.55
2023-05-04T03:43:05.071Z,96.40
2023-05-04T03:45:35.033Z,87.00
2023-05-04T03:48:05.703Z,92.13
2023-05-04T03:50:35.403Z,95.38
2023-05-04T03:53:05.050Z,84.20
2023-05-04T03:55:34.822Z,104.63
2023-05-04T03:58:04.856Z,95.80
2023-05-04T04:00:35.256Z,92.07
2023-05-04T04:03:05.012Z,84.28
2023-05-04T04:05:34.831Z,89.10
2023-05-04T04:08:05.286Z,79.65
2023-05-04T04:10:35.093Z,83.25
2023-05-04T04:13:05.103Z,86.78
2023-05-04T04:15:35.594Z,83.88
2023-05-04T04:18:05.349Z,83.40
2023-05-04T04:20:36.105Z,84.78
2023-05-04T04:23:06.042Z,83.50
2023-05-04T04:25:36.736Z,87.53
2023-05-04T04:28:06.656Z,87.47
2023-05-04T04:30:36.962Z,81.00
2023-05-04T04:33:06.830Z,96.45
2023-05-04T04:35:36.483Z,93.95
2023-05-04T04:38:06.648Z,94.07
2023-05-04T04:40:36.433Z,78.90
2023-05-04T04:43:06.390Z,98.18
2023-05-04T04:45:36.781Z,85.90
2023-05-04T04:50:35.773Z,111.70
2023-05-04T04:53:06.808Z,100.93
2023-05-04T04:55:36.485Z,92.95
2023-05-04T04:58:06.348Z,101.07
2023-05-04T05:00:37.191Z,103.85
2023-05-04T05:03:07.135Z,88.00
2023-05-04T05:05:37.350Z,80.45
2023-05-04T05:08:09.284Z,78.40
2023-05-04T05:10:40.103Z,73.18
2023-05-04T05:13:10.916Z,73.50
2023-05-04T05:15:40.894Z,74.85
2023-05-04T05:18:10.615Z,64.60
2023-05-04T05:20:40.738Z,54.28
2023-05-04T05:23:10.656Z,63.22
2023-05-04T05:25:40.652Z,58.80
2023-05-04T05:28:10.707Z,52.47
2023-05-04T05:30:40.568Z,49.67
2023-05-04T05:33:10.656Z,40.75
2023-05-04T05:35:42.184Z,30.90
2023-05-04T05:38:12.385Z,36.03
2023-05-04T05:40:42.047Z,25.67
2023-05-04T05:43:13.616Z,34.50
2023-05-04T05:45:44.337Z,23.10
2023-05-04T05:48:14.053Z,20.95
2023-05-04T05:50:44.062Z,25.13
2023-05-04T05:53:13.854Z,22.42
2023-05-04T05:56:19.262Z,22.75
2023-05-04T05:58:49.088Z,16.38
2023-05-04T06:01:19.052Z,22.30
2023-05-04T06:03:49.026Z,16.30
2023-05-04T06:06:19.077Z,21.98
2023-05-04T06:08:49.087Z,16.92
2023-05-04T06:11:19.231Z,16.67
2023-05-04T06:13:49.190Z,16.90
2023-05-04T06:16:19.037Z,22.30
2023-05-04T06:18:48.919Z,16.45
2023-05-04T06:21:18.547Z,17.75
2023-05-04T06:23:49.529Z,21.38
2023-05-04T06:26:21.616Z,19.98
2023-05-04T06:28:51.834Z,18.45
2023-05-04T06:31:21.634Z,21.77
2023-05-04T06:33:51.746Z,20.08
2023-05-04T06:36:22.034Z,19.02
2023-05-04T06:41:21.624Z,20.50
2023-05-04T06:43:51.576Z,20.95
2023-05-04T06:46:21.717Z,19.20
2023-05-04T06:48:51.883Z,19.42
2023-05-04T06:51:23.914Z,22.35
2023-05-04T06:53:54.160Z,20.88
2023-05-04T06:58:53.366Z,25.30
2023-05-04T07:01:23.506Z,26.35
2023-05-04T07:03:54.033Z,30.10
2023-05-04T07:06:28.122Z,32.83
2023-05-04T07:08:58.072Z,30.98
2023-05-04T07:11:29.582Z,40.03
2023-05-04T07:13:59.412Z,37.10
2023-05-04T07:16:29.665Z,44.20
2023-05-04T07:21:30.044Z,46.47
2023-05-04T07:24:00.066Z,42.30
2023-05-04T07:26:32.791Z,42.90
2023-05-04T07:29:02.796Z,45.80
2023-05-04T07:31:32.858Z,43.08
2023-05-04T07:34:03.129Z,43.88
2023-05-04T07:36:32.882Z,45.00
2023-05-04T07:39:02.769Z,43.38
2023-05-04T07:41:32.520Z,44.83
2023-05-04T07:44:02.639Z,46.17
2023-05-04T07:46:32.615Z,45.13
2023-05-04T07:49:02.550Z,46.92
2023-05-04T07:51:33.565Z,49.88
2023-05-04T07:54:03.429Z,44.13
2023-05-04T07:56:34.300Z,44.50
2023-05-04T07:59:04.159Z,44.80
2023-05-04T08:01:33.924Z,49.03
2023-05-04T08:04:03.913Z,54.75
2023-05-04T08:06:35.380Z,53.67
2023-05-04T08:09:05.105Z,53.88
2023-05-04T08:11:36.352Z,58.88
2023-05-04T08:14:08.012Z,54.78
2023-05-04T08:16:38.137Z,55.88
2023-05-04T08:19:09.379Z,51.72
2023-05-04T08:21:39.119Z,51.78
2023-05-04T08:24:09.212Z,54.25
2023-05-04T08:26:42.558Z,57.28
2023-05-04T08:29:15.103Z,58.42
2023-05-04T08:31:44.950Z,59.00
2023-05-04T08:34:16.032Z,59.05
2023-05-04T08:36:46.017Z,58.67
2023-05-04T08:39:16.294Z,62.42
2023-05-04T08:44:17.582Z,69.78
2023-05-04T08:46:55.289Z,68.85
2023-05-04T08:49:26.548Z,70.85
2023-05-04T08:51:56.311Z,82.45
2023-05-04T08:54:30.667Z,85.88
2023-05-04T08:57:02.812Z,71.20
2023-05-04T08:59:35.095Z,77.90
2023-05-04T09:02:08.453Z,75.05
2023-05-04T09:04:38.672Z,70.95
2023-05-04T09:09:41.182Z,61.97
2023-05-04T09:12:11.350Z,57.72
2023-05-04T09:17:29.581Z,54.97
2023-05-04T09:20:03.013Z,61.47
2023-05-04T09:22:33.665Z,58.88
2023-05-04T09:25:12.073Z,58.22
2023-05-04T09:27:44.598Z,50.55
2023-05-04T09:30:16.679Z,61.10
2023-05-04T09:32:50.315Z,54.97
2023-05-04T09:35:31.895Z,56.47
2023-05-04T09:38:04.097Z,51.95
2023-05-04T09:40:34.979Z,52.55
2023-05-04T09:43:08.232Z,52.15
2023-05-04T09:45:44.571Z,56.15
2023-05-04T09:48:27.353Z,61.70
2023-05-04T09:50:58.443Z,54.25
2023-05-04T09:53:29.422Z,57.53
2023-05-04T09:56:14.038Z,56.97
2023-05-04T09:58:45.852Z,53.92
2023-05-04T10:01:16.040Z,57.38
2023-05-04T10:03:48.889Z,47.53
2023-05-04T10:06:19.396Z,53.05
2023-05-04T10:08:51.095Z,50.03
2023-05-04T10:11:27.825Z,47.70
2023-05-04T10:14:01.887Z,49.35
2023-05-04T10:16:39.585Z,46.90
2023-05-04T10:19:27.313Z,36.22
2023-05-04T10:22:15.405Z,40.40
2023-05-04T10:25:04.115Z,43.85
2023-05-04T10:27:42.563Z,40.38
2023-05-04T10:30:15.909Z,24.90
2023-05-04T10:32:46.554Z,24.70
2023-05-04T10:35:20.209Z,23.88
2023-05-04T10:37:57.563Z,24.65
2023-05-04T10:40:36.176Z,19.63
2023-05-04T10:43:06.959Z,21.13
2023-05-04T10:45:44.027Z,24.17
2023-05-04T10:48:15.044Z,39.28
2023-05-04T10:50:54.246Z,44.92
2023-05-04T10:53:34.634Z,46.60
2023-05-04T10:56:04.451Z,46.80
2023-05-04T10:58:35.314Z,49.85
2023-05-04T11:01:15.049Z,50.63
2023-05-04T11:03:45.175Z,46.90
2023-05-04T11:08:44.876Z,43.57
2023-05-04T11:11:15.580Z,40.80
2023-05-04T11:13:48.698Z,43.78
2023-05-04T11:16:29.227Z,26.48
2023-05-04T11:19:11.973Z,24.27
2023-05-04T11:21:43.179Z,23.52
2023-05-04T11:24:13.406Z,17.80
2023-05-04T11:26:51.369Z,24.75
2023-05-04T11:29:22.498Z,21.98
2023-05-04T11:31:58.863Z,25.02
2023-05-04T11:34:29.437Z,20.23
2023-05-04T11:37:00.601Z,26.00
2023-05-04T11:39:30.365Z,25.55
2023-05-04T11:42:04.321Z,26.20
2023-05-04T11:44:40.552Z,22.92
2023-05-04T11:47:10.785Z,24.27
2023-05-04T11:49:42.045Z,25.20
2023-05-04T11:52:12.330Z,24.23
2023-05-04T11:54:42.437Z,22.48
2023-05-04T11:59:52.003Z,29.00
2023-05-04T12:02:21.963Z,24.25
2023-05-04T12:04:51.945Z,23.55
2023-05-04T12:07:21.937Z,30.92
2023-05-04T12:09:52.123Z,29.05
2023-05-04T12:14:58.462Z,37.58
2023-05-04T12:17:28.381Z,32.50
2023-05-04T12:19:59.891Z,31.88
2023-05-04T12:22:30.566Z,32.80
2023-05-04T12:25:03.605Z,37.55
2023-05-04T12:27:36.095Z,36.28
2023-05-04T12:30:05.863Z,30.17
2023-05-04T12:32:37.454Z,34.63
2023-05-04T12:35:08.268Z,33.28
2023-05-04T12:37:40.361Z,34.90
2023-05-04T12:40:27.248Z,34.80
2023-05-04T12:42:58.255Z,37.40
2023-05-04T12:47:57.664Z,36.20
2023-05-04T12:50:31.691Z,33.63
2023-05-04T12:53:01.594Z,39.28
2023-05-04T12:55:31.526Z,38.92
2023-05-04T12:58:01.178Z,45.63
2023-05-04T13:00:33.132Z,36.22
2023-05-04T13:03:03.319Z,52.25
2023-05-04T13:08:02.647Z,46.47
2023-05-04T13:10:34.077Z,44.60
2023-05-04T13:13:06.310Z,48.05
2023-05-04T13:15:36.576Z,45.83
2023-05-04T13:20:36.932Z,45.15
2023-05-04T13:23:07.026Z,47.95
2023-05-04T13:25:36.809Z,55.95
2023-05-04T13:28:07.079Z,52.20
2023-05-04T13:33:16.850Z,61.08
2023-05-04T13:35:59.213Z,77.00
2023-05-04T13:38:29.316Z,73.80
2023-05-04T13:40:59.244Z,73.03
2023-05-04T13:43:36.188Z,85.53
2023-05-04T13:46:06.756Z,89.05
2023-05-04T13:48:36.920Z,87.50
2023-05-04T13:51:12.996Z,98.63
2023-05-04T13:53:43.387Z,102.50
2023-05-04T13:56:13.620Z,93.82
2023-05-04T14:01:12.728Z,87.97
2023-05-04T14:03:42.776Z,92.80
2023-05-04T14:06:12.987Z,75.80
2023-05-04T14:08:43.678Z,78.13
2023-05-04T14:11:13.804Z,76.40
2023-05-04T14:13:43.693Z,77.93
2023-05-04T14:16:13.721Z,80.30
2023-05-04T14:18:43.564Z,79.15
2023-05-04T14:21:13.633Z,83.97
2023-05-04T14:23:43.801Z,75.53
2023-05-04T14:26:13.691Z,77.95
2023-05-04T14:28:45.016Z,88.93
2023-05-04T14:31:14.690Z,86.68
2023-05-04T14:33:45.142Z,82.25
2023-05-04T14:36:15.547Z,82.72
2023-05-04T14:38:45.639Z,90.50
2023-05-04T14:41:16.637Z,90.95
2023-05-04T14:43:46.741Z,87.22
2023-05-04T14:46:16.869Z,95.65
2023-05-04T14:48:47.429Z,82.63
2023-05-04T14:51:24.446Z,87.82
2023-05-04T14:53:54.453Z,104.28
2023-05-04T14:56:25.226Z,93.97
2023-05-04T14:58:58.811Z,97.72
2023-05-04T15:01:28.674Z,102.32
2023-05-04T15:03:58.995Z,135.82
2023-05-04T15:08:58.797Z,95.50
2023-05-04T15:11:28.750Z,94.13
2023-05-04T15:14:00.538Z,104.22
2023-05-04T15:16:33.802Z,93.45
2023-05-04T15:19:04.501Z,110.28
2023-05-04T15:21:34.760Z,99.88
2023-05-04T15:26:45.342Z,117.07
2023-05-04T15:29:15.458Z,100.57
2023-05-04T15:31:45.714Z,94.10
2023-05-04T15:36:47.165Z,98.38
2023-05-04T15:39:17.706Z,100.10
2023-05-04T15:41:47.856Z,101.28
2023-05-04T15:44:17.854Z,93.30
2023-05-04T15:46:48.131Z,89.00
2023-05-04T15:51:47.955Z,81.97
2023-05-04T15:54:20.817Z,92.47
2023-05-04T15:56:51.440Z,79.18
2023-05-04T15:59:21.892Z,85.90
2023-05-04T16:01:51.984Z,86.72
2023-05-04T16:04:24.159Z,105.57
2023-05-04T16:06:54.287Z,74.90
2023-05-04T16:09:24.398Z,80.95
2023-05-04T16:11:54.579Z,84.78
2023-05-04T16:14:26.337Z,88.22
2023-05-04T16:16:57.182Z,88.07
2023-05-04T16:19:27.904Z,98.28
2023-05-04T16:21:58.090Z,86.78
2023-05-04T16:24:28.514Z,98.97
2023-05-04T16:29:27.984Z,92.93
2023-05-04T16:31:57.843Z,84.95
2023-05-04T16:34:27.556Z,105.47
2023-05-04T16:36:57.733Z,96.28
2023-05-04T16:39:36.066Z,97.35
2023-05-04T16:42:08.093Z,98.65
2023-05-04T16:44:38.498Z,102.53
2023-05-04T16:49:38.828Z,97.55
2023-05-04T16:52:11.874Z,111.78
2023-05-04T16:54:41.912Z,113.45
2023-05-04T16:57:11.789Z,116.55
2023-05-04T16:59:41.750Z,126.95
2023-05-04T17:02:11.794Z,111.18
2023-05-04T17:04:42.328Z,107.75
2023-05-04T17:07:12.386Z,111.90
2023-05-04T17:09:42.944Z,111.18
2023-05-04T17:12:13.166Z,105.05
2023-05-04T17:14:43.513Z,100.32
2023-05-04T17:19:43.753Z,106.03
2023-05-04T17:22:13.938Z,113.85
2023-05-04T17:24:45.412Z,109.53
2023-05-04T17:27:16.061Z,98.15
2023-05-04T17:29:46.799Z,105.95
2023-05-04T17:32:17.216Z,104.63
2023-05-04T17:34:47.817Z,113.70
2023-05-04T17:37:17.628Z,104.13
2023-05-04T17:39:48.749Z,108.82
2023-05-04T17:42:18.666Z,105.72
2023-05-04T17:44:48.618Z,102.00
2023-05-04T17:47:18.664Z,105.20
2023-05-04T17:49:49.265Z,107.85
2023-05-04T17:52:19.159Z,102.20
2023-05-04T17:54:48.833Z,90.22
2023-05-04T17:57:18.655Z,97.75
2023-05-04T17:59:55.330Z,102.00
2023-05-04T18:02:24.982Z,107.55
2023-05-04T18:04:54.938Z,87.53
2023-05-04T18:07:24.654Z,92.85
2023-05-04T18:09:55.620Z,90.32
2023-05-04T18:12:26.070Z,111.25
2023-05-04T18:14:56.331Z,106.97
2023-05-04T18:17:28.730Z,100.88
2023-05-04T18:20:02.035Z,108.00
2023-05-04T18:22:32.712Z,85.40
2023-05-04T18:25:03.681Z,85.18
2023-05-04T18:27:35.017Z,107.47
2023-05-04T18:30:06.137Z,79.43
2023-05-04T18:32:36.207Z,99.72
2023-05-04T18:35:06.184Z,85.60
2023-05-04T18:37:35.854Z,100.93
2023-05-04T18:40:06.737Z,99.95
2023-05-04T18:42:36.680Z,107.82
2023-05-04T18:45:06.851Z,109.65
2023-05-04T18:47:36.985Z,87.20
2023-05-04T18:50:07.249Z,98.10
2023-05-04T18:52:37.148Z,93.53
2023-05-04T18:55:08.048Z,97.35
2023-05-04T18:57:38.018Z,88.07
2023-05-04T19:00:08.443Z,81.75
2023-05-04T19:02:39.440Z,95.63
2023-05-04T19:05:09.765Z,85.70
2023-05-04T19:07:40.461Z,80.90
2023-05-04T19:10:10.594Z,80.32
2023-05-04T19:12:40.346Z,79.63
2023-05-04T19:15:11.363Z,73.05
2023-05-04T19:17:42.128Z,88.35
2023-05-04T19:20:13.173Z,80.15
2023-05-04T19:22:42.984Z,79.60
2023-05-04T19:25:17.820Z,86.07
2023-05-04T19:27:57.016Z,72.93
2023-05-04T19:30:26.658Z,89.32
2023-05-04T19:32:56.767Z,78.22
2023-05-04T19:35:26.581Z,94.57
2023-05-04T19:37:56.240Z,104.30
2023-05-04T19:40:26.074Z,102.60
2023-05-04T19:42:55.749Z,104.97
2023-05-04T19:45:25.485Z,106.95
2023-05-04T19:47:55.209Z,111.20
2023-05-04T19:50:24.907Z,96.63
2023-05-04T19:52:54.550Z,89.53
2023-05-04T19:55:24.308Z,94.43
2023-05-04T19:57:54.657Z,97.32
2023-05-04T20:00:25.569Z,90.22
2023-05-04T20:02:55.548Z,92.18
2023-05-04T20:05:25.303Z,89.68
2023-05-04T20:07:55.046Z,97.07
2023-05-04T20:10:24.743Z,96.35
2023-05-04T20:12:54.518Z,110.25
2023-05-04T20:15:24.231Z,115.88
2023-05-04T20:17:54.180Z,104.95
2023-05-04T20:20:24.218Z,109.50
2023-05-04T20:22:55.126Z,100.03
2023-05-04T20:25:25.287Z,96.70
2023-05-04T20:27:55.545Z,98.75
2023-05-04T20:30:26.439Z,97.75
2023-05-04T20:32:56.172Z,90.72
2023-05-04T20:35:26.102Z,95.13
2023-05-04T20:37:56.058Z,91.78
2023-05-04T20:40:25.731Z,87.15
2023-05-04T20:42:55.435Z,95.30
2023-05-04T20:45:25.134Z,91.32
2023-05-04T20:47:54.881Z,100.95
2023-05-04T20:50:24.687Z,88.22
2023-05-04T20:52:54.358Z,100.07
2023-05-04T20:55:24.966Z,96.15
2023-05-04T20:57:54.654Z,94.32
2023-05-04T21:00:26.218Z,98.38
2023-05-04T21:02:56.313Z,107.15
2023-05-04T21:05:26.133Z,100.15
2023-05-04T21:07:56.229Z,96.25
2023-05-04T21:10:26.602Z,101.65
2023-05-04T21:12:59.302Z,110.95
2023-05-04T21:15:28.966Z,97.70
2023-05-04T21:17:58.752Z,100.50
2023-05-04T21:20:28.483Z,99.80
2023-05-04T21:22:59.268Z,87.13
2023-05-04T21:25:28.933Z,87.60
2023-05-04T21:28:03.228Z,94.95
2023-05-04T21:30:33.044Z,91.90
2023-05-04T21:33:02.927Z,98.65
2023-05-04T21:35:33.082Z,80.65
2023-05-04T21:38:02.876Z,85.78
2023-05-04T21:40:33.252Z,83.90
2023-05-04T21:43:03.634Z,90.80
2023-05-04T21:45:34.564Z,99.60
2023-05-04T21:48:05.380Z,85.13
2023-05-04T21:50:36.597Z,95.70
2023-05-04T21:55:35.454Z,139.50
2023-05-04T21:58:06.045Z,180.35
2023-05-04T22:00:35.816Z,204.70
2023-05-04T22:03:05.754Z,215.60
2023-05-04T22:05:35.576Z,212.75
2023-05-04T22:08:05.518Z,208.52
2023-05-04T22:10:38.026Z,205.05
2023-05-04T22:13:07.813Z,218.20
2023-05-04T22:15:49.809Z,204.85
2023-05-04T22:18:22.147Z,209.50
2023-05-04T22:20:52.503Z,203.32
2023-05-04T22:23:22.259Z,217.25
2023-05-04T22:25:51.990Z,215.30
2023-05-04T22:28:21.753Z,198.07
2023-05-04T22:30:51.481Z,197.20
2023-05-04T22:33:21.085Z,142.77
2023-05-04T22:35:51.948Z,137.90
2023-05-04T22:38:21.596Z,152.82
2023-05-04T22:40:52.505Z,153.93
2023-05-04T22:43:23.157Z,152.15
2023-05-04T22:45:52.842Z,159.85
2023-05-04T22:48:22.719Z,172.90
2023-05-04T22:50:52.681Z,165.32
2023-05-04T22:53:23.027Z,186.95
2023-05-04T22:55:52.756Z,214.52
2023-05-04T22:58:23.789Z,212.73
2023-05-04T23:00:54.284Z,206.80
2023-05-04T23:05:53.136Z,226.70
2023-05-04T23:08:22.824Z,220.57
2023-05-04T23:10:52.465Z,241.70
2023-05-04T23:13:22.391Z,231.13
2023-05-04T23:15:52.131Z,225.85
2023-05-04T23:18:21.755Z,228.40
2023-05-04T23:20:51.448Z,231.45
2023-05-04T23:23:21.102Z,239.30
2023-05-04T23:25:50.728Z,238.45
2023-05-04T23:28:20.465Z,246.40
2023-05-04T23:30:50.155Z,242.30
2023-05-04T23:33:19.836Z,245.10
2023-05-04T23:35:49.605Z,245.52
2023-05-04T23:38:19.592Z,265.02
2023-05-04T23:40:49.324Z,256.33
2023-05-04T23:43:19.070Z,246.85
2023-05-04T23:45:48.896Z,251.75
2023-05-04T23:48:18.658Z,217.73
2023-05-04T23:50:58.337Z,228.68
2023-05-04T23:53:28.300Z,238.18
2023-05-04T23:56:03.794Z,225.73
2023-05-04T23:58:34.584Z,222.32
